EA4ACU-1
43.29.56N 005.38.92W
IN73EL aprs.fi
zuletzt gehoert:
2022-08-10T15:31:45Z
zuerst gehoert:
2022-06-05T12:27:35Z

APRS Gijón/Xixón [IN73EL], 2 Stunde(n), EA4ACU-1 [07:55:52, 0s].
EB1GEM 43.30.00N 005.36.07WIN73EM 3.562km 69°ENE05:55:38ZWX3in1Plus2.0 U=13.3V,T=??.?C/??.?F(3EB1GEM-3)
ED1ZAE 43.27.99N 005.40.54WIN73DL 3.666km 227°SW05:47:24Z400 M. PICO SAN MARTIN (GIJON) 13.4V,19.7C(3ED1ZAE-3)
ED1ZAS 43.27.52N 005.40.17WIN73DL 3.999km 213°SSW05:32:11ZRD985 438.2250/430.6250 CC1
EA1DZR 43.31.48N 005.40.00WIN73EM 4.424km 334°NNW05:32:03ZMMDVM DVMega 431.1000/431.1000 CC1(3EA1DZR-1)
MMDVM MMDVM HS Hat 432.1000/432.1000 CC2(2EA1DZR-2)
MMDVM DV ADER 434.3500/434.3500 CC1(2EA1DZR-4)
EA1FFA 43.31.53N 005.40.64WIN73DM 4.955km 326°NW05:31:12ZMMDVM MMDVM HS Hat 438.8000/438.8000 CC1(3EA1FFA-1)
EA1IEJ 43.31.83N 005.40.22WIN73DM 5.142km 334°NNW05:32:01ZMMDVM MMDVM HS Hat 438.8500/438.8500 CC6(3EA1IEJ-1)
MMDVM DMO 222.3400/222.3400 CC1(2EA1IEJ-11)
EB1TK 43.32.22N 005.42.32WIN73DM 7.375km 317°NW05:50:30ZWind 210°/003kn, Böen bis 006kn, Temp 15.56c, Regen 0.0mm, letzte 24h 1.8mm, seit 0h 1.8mm, Baro 1014.9h, Hum: 92%(3EB1TK-13)
LEEL 43.32.98N 005.41.71WIN73DN 7.982km 328°NNW05:30:03ZHelipuerto de El Musel: LEAS 140430Z 24003KT CAVOK 16/15 Q1012 NOSIG=
EA1IPU 43.26.21N 005.46.62WIN73CK 12.291km 242°WSW05:30:24ZMMDVM MMDVM HS Hat 439.8000/439.8000 CC1(3EA1IPU-1)
EA1ABW 43.24.77N 005.47.77WIN73CJ 15.012km 236°SW05:30:25ZMMDVM MMDVM HS Hat 439.8250/439.8250 CC1(3EA1ABW-1)
MMDVM MMDVM HS Hat 439.8250/439.8250 CC1(2EA1ABW-2)
LEMR 43.25.83N 005.49.60WIN73CK 16.230km 246°WSW05:30:03ZAerodromo de la Morgal (123.500MHz): LEAS 140430Z 24003KT CAVOK 16/15 Q1012 NOSIG=
LEGM 43.26.15N 005.49.84WIN73CK 16.282km 249°WSW05:30:02ZHelipuerto de La Morgal (123.500MHz): LEAS 140430Z 24003KT CAVOK 16/15 Q1012 NOSIG=
EA1FHR 43.28.72N 005.26.41WIN73GL 16.351km 94°E05:30:18ZMMDVM MMDVM HS Hat 439.1500/439.1500 CC1
EA1HWD 43.28.96N 005.26.30WIN73GL 16.486km 92°E05:30:25ZMMDVM MMDVM HS Hat 434.2500/434.2500 CC1
EC1AIJ 43.19.77N 005.33.49WIN73FH 18.990km 159°SSE05:30:12ZMMDVM MMDVM HS Hat 432.9800/432.9800 CC1
LEHU 43.22.63N 005.49.57WIN73CJ 19.355km 230°SW05:30:02ZHelipuerto del HUCA: LEAS 140430Z 24003KT CAVOK 16/15 Q1012 NOSIG=
EA1AHA 43.32.72N 005.54.38WIN73BN 22.178km 287°WNW05:32:06ZWind 000°/000kn, Böen bis 000kn, Temp 16.67c, Regen 0.0mm, letzte 24h 1.0mm, seit 0h 1.0mm, Baro 1013.9h, Hum: 85%(3EA1AHA-13)
ED1ZAU 43.23.04N 005.52.75WIN73BJ 22.395km 239°WSW05:32:11ZRD625 438.5000/430.9000 CC1
EA1JAY 43.21.54N 005.51.34WIN73BI 22.479km 230°SW05:30:05ZEA1JAY(3EA1JAY-2)
434.525MHz Nodo TETRA DMO(2EA1JAY-4)
EB1JAJ 43.21.72N 005.51.82WIN73BI 22.759km 232°SW05:31:54ZMMDVM MMDVM HS Dual Hat 438.0250/431.0250 CC1(3EB1JAJ-2)
EA1HJA 43.21.47N 005.52.09WIN73BI 23.331km 231°SW05:51:21Z IN73FL WX3IN1+ 2.0 - V=13.2V,TX TEMP=32.8C(3EA1HJA-2)
IN73FL WX3IN1+ 2.0 - V=14.0V,TX TEMP=46.1C(2EA1HJA)
EA1L 43.20.37N 005.51.13WIN73BI 23.707km 226°SW05:55:05Zea1l@ure.es V=13.4V
Wind 192°/000kn, Böen bis 003kn, Temp 17.22c, Regen 0.0mm, letzte 24h 0.0mm, seit 0h 0.0mm, Baro 1010.8h, Hum: 96%(2EA1L-13)
ED1ZAY 43.29.47N 005.56.54WIN73AL 24.196km 271°W05:32:10ZRD625 438.3000/430.7000 CC1
EA1HWX 43.19.28N 005.50.98WIN73BH 25.042km 222°SW05:31:52ZDMO - UHF 439.7250/431.0000 CC11(3EA1HWX-2)
MMDVM DMO 222.3400/222.3400 CC1(2EA1HWX-10)
EA1IMW 43.14.36N 005.46.93WIN73CF 29.957km 202°SSW05:31:48ZGRUPO RADIO GALENA (GRG) 430.4500/430.4500 CC1(3EA1IMW-1)
EA1JBU 43.30.80N 005.16.20WIN73IM 30.151km 85°E05:15:02ZEA1JBU(3EA1JBU-2)
EB1DGC 43.12.60N 005.45.59WIN73CF 32.433km 197°SSW05:30:50ZMMDVM MMDVM HS Hat 433.4500/433.4500 CC1
EA1JBL 43.12.28N 005.47.42WIN73CE 33.775km 201°SSW05:31:27ZMMDVM DVMega 435.3000/435.3000 CC1
EA1HWA 43.12.00N 005.47.40WIN73CE 34.264km 200°SSW05:30:50ZMMDVM MMDVM HS Hat 433.4500/433.4500 CC1
ED1ZAD 43.07.90N 005.38.52WIN73ED 39.701km 180°S05:47:14ZED1ZAD-3 APRS Digi/Igate(3ED1ZAD-3)
EA1RCG 43.09.45N 005.49.78WIN73CD 39.823km 202°SSW05:30:11ZGRUPO RADIO GALENA (GRG) 430.4500/430.4500 CC1(3EA1RCG-3)
ED1ZBF 43.19.16N 005.06.74WIN73KH 46.773km 114°ESE05:32:11ZRD625 438.4750/430.8750 CC1

aprs.pl 5.0.011w DL3EL © 2006-2021 [4369982]